createdAt,value
2018-11-05T00:01:07.276Z,9.20
2018-11-05T00:03:34.790Z,9.20
2018-11-05T00:06:02.296Z,9.20
2018-11-05T00:08:29.803Z,9.10
2018-11-05T00:10:57.307Z,9.00
2018-11-05T00:13:24.827Z,8.90
2018-11-05T00:15:52.326Z,8.80
2018-11-05T00:18:19.863Z,8.70
2018-11-05T00:20:47.377Z,8.70
2018-11-05T00:23:14.896Z,8.60
2018-11-05T00:25:42.411Z,8.60
2018-11-05T00:28:09.915Z,8.50
2018-11-05T00:30:37.409Z,8.50
2018-11-05T00:33:04.936Z,8.40
2018-11-05T00:35:32.454Z,8.40
2018-11-05T00:37:59.971Z,8.40
2018-11-05T00:40:27.470Z,8.30
2018-11-05T00:42:54.988Z,8.20
2018-11-05T00:45:22.489Z,8.20
2018-11-05T00:47:50.216Z,8.10
2018-11-05T00:50:17.782Z,8.00
2018-11-05T00:52:45.294Z,8.00
2018-11-05T00:55:13.152Z,8.00
2018-11-05T00:57:40.667Z,7.90
2018-11-05T01:00:14.411Z,7.90
2018-11-05T01:02:42.205Z,7.80
2018-11-05T01:05:11.167Z,7.80
2018-11-05T01:07:38.968Z,7.80
2018-11-05T01:10:07.721Z,7.80
2018-11-05T01:12:35.605Z,7.80
2018-11-05T01:15:03.139Z,7.80
2018-11-05T01:17:30.651Z,7.70
2018-11-05T01:19:58.153Z,7.70
2018-11-05T01:22:25.643Z,7.70
2018-11-05T01:24:53.148Z,7.80
2018-11-05T01:27:20.648Z,7.90
2018-11-05T01:29:48.152Z,8.10
2018-11-05T01:32:15.642Z,8.30
2018-11-05T01:34:43.139Z,8.40
2018-11-05T01:37:10.701Z,8.40
2018-11-05T01:39:38.156Z,8.50
2018-11-05T01:42:05.668Z,8.50
2018-11-05T01:44:33.188Z,8.40
2018-11-05T01:47:00.699Z,8.30
2018-11-05T01:49:28.204Z,8.20
2018-11-05T01:51:55.717Z,8.10
2018-11-05T01:54:23.241Z,7.90
2018-11-05T01:56:50.756Z,7.90
2018-11-05T01:59:19.532Z,7.90
2018-11-05T02:01:47.047Z,7.90
2018-11-05T02:04:14.557Z,7.80
2018-11-05T02:06:42.069Z,7.80
